LFOE 221030Z AUTO 04012KT 4800 BR FEW013 01/M03 Q1019

ElémentsDécodage
LFOE Station météo située sur l'aérodrome de EVREUX Fauville
221030Z émis le 22 du mois à 10h30 UTC
AUTO Bulletin édité par un automate
04012KT vent du 040°, 12 noeuds
4800 visibilité horizontale de 4800 mètres
BR brume
FEW013 nuages rares (1/8 à 2/8) à 1300 pieds
01/M03 température 01°C, point de rosée -03°C
 soit une humidité relative de 75%
Q1019 la pression au niveau de la mer (QNH) est de 1019 hPa